sensor_id;sensor_type;location;lat;lon;timestamp;P1;durP1;ratioP1;P2;durP2;ratioP2
68196;SDS011;55019;49.382;11.358;2023-05-07T00:01:43;1.00;;;0.88;;
68196;SDS011;55019;49.382;11.358;2023-05-07T00:04:08;0.57;;;0.50;;
68196;SDS011;55019;49.382;11.358;2023-05-07T00:06:34;1.02;;;0.55;;
68196;SDS011;55019;49.382;11.358;2023-05-07T00:09:00;1.75;;;0.63;;
68196;SDS011;55019;49.382;11.358;2023-05-07T00:11:26;0.73;;;0.73;;
68196;SDS011;55019;49.382;11.358;2023-05-07T00:13:53;1.27;;;0.80;;
68196;SDS011;55019;49.382;11.358;2023-05-07T00:16:19;2.40;;;0.63;;
68196;SDS011;55019;49.382;11.358;2023-05-07T00:18:45;0.95;;;0.80;;
68196;SDS011;55019;49.382;11.358;2023-05-07T00:21:11;1.00;;;0.82;;
68196;SDS011;55019;49.382;11.358;2023-05-07T00:23:37;1.02;;;0.80;;
68196;SDS011;55019;49.382;11.358;2023-05-07T00:26:03;1.55;;;0.80;;
68196;SDS011;55019;49.382;11.358;2023-05-07T00:28:29;1.05;;;0.70;;
68196;SDS011;55019;49.382;11.358;2023-05-07T00:30:55;2.08;;;0.80;;
68196;SDS011;55019;49.382;11.358;2023-05-07T00:33:21;1.98;;;0.80;;
68196;SDS011;55019;49.382;11.358;2023-05-07T00:35:47;1.70;;;0.75;;
68196;SDS011;55019;49.382;11.358;2023-05-07T00:38:13;1.70;;;0.85;;
68196;SDS011;55019;49.382;11.358;2023-05-07T00:40:39;2.03;;;0.93;;
68196;SDS011;55019;49.382;11.358;2023-05-07T00:43:05;1.73;;;0.90;;
68196;SDS011;55019;49.382;11.358;2023-05-07T00:45:32;1.08;;;0.93;;
68196;SDS011;55019;49.382;11.358;2023-05-07T00:48:01;1.20;;;1.10;;
68196;SDS011;55019;49.382;11.358;2023-05-07T00:50:27;1.23;;;1.00;;
68196;SDS011;55019;49.382;11.358;2023-05-07T00:55:21;1.98;;;1.08;;
68196;SDS011;55019;49.382;11.358;2023-05-07T00:57:49;1.65;;;0.95;;
68196;SDS011;55019;49.382;11.358;2023-05-07T01:00:16;1.73;;;0.98;;
68196;SDS011;55019;49.382;11.358;2023-05-07T01:02:44;1.25;;;0.90;;
68196;SDS011;55019;49.382;11.358;2023-05-07T01:05:14;1.10;;;0.90;;
68196;SDS011;55019;49.382;11.358;2023-05-07T01:07:42;1.55;;;1.35;;
68196;SDS011;55019;49.382;11.358;2023-05-07T01:10:09;1.65;;;1.10;;
68196;SDS011;55019;49.382;11.358;2023-05-07T01:12:36;1.20;;;1.10;;
68196;SDS011;55019;49.382;11.358;2023-05-07T01:15:03;2.20;;;1.45;;
68196;SDS011;55019;49.382;11.358;2023-05-07T01:17:34;3.63;;;1.35;;
68196;SDS011;55019;49.382;11.358;2023-05-07T01:20:02;2.35;;;1.33;;
68196;SDS011;55019;49.382;11.358;2023-05-07T01:22:31;1.50;;;1.20;;
68196;SDS011;55019;49.382;11.358;2023-05-07T01:24:58;1.70;;;1.42;;
68196;SDS011;55019;49.382;11.358;2023-05-07T01:27:27;2.65;;;1.60;;
68196;SDS011;55019;49.382;11.358;2023-05-07T01:29:54;2.65;;;1.55;;
68196;SDS011;55019;49.382;11.358;2023-05-07T01:32:32;1.75;;;1.65;;
68196;SDS011;55019;49.382;11.358;2023-05-07T01:35:03;1.73;;;1.17;;
68196;SDS011;55019;49.382;11.358;2023-05-07T01:37:32;2.40;;;1.42;;
68196;SDS011;55019;49.382;11.358;2023-05-07T01:39:58;2.78;;;1.70;;
68196;SDS011;55019;49.382;11.358;2023-05-07T01:42:26;2.47;;;1.40;;
68196;SDS011;55019;49.382;11.358;2023-05-07T01:44:52;2.10;;;1.30;;
68196;SDS011;55019;49.382;11.358;2023-05-07T01:47:17;2.15;;;1.40;;
68196;SDS011;55019;49.382;11.358;2023-05-07T01:49:44;2.60;;;1.90;;
68196;SDS011;55019;49.382;11.358;2023-05-07T01:52:10;2.13;;;1.55;;
68196;SDS011;55019;49.382;11.358;2023-05-07T01:54:36;3.58;;;1.60;;
68196;SDS011;55019;49.382;11.358;2023-05-07T01:57:02;1.70;;;1.60;;
68196;SDS011;55019;49.382;11.358;2023-05-07T01:59:28;2.33;;;1.73;;
68196;SDS011;55019;49.382;11.358;2023-05-07T02:01:54;2.22;;;1.50;;
68196;SDS011;55019;49.382;11.358;2023-05-07T02:04:19;2.40;;;1.70;;
68196;SDS011;55019;49.382;11.358;2023-05-07T02:06:45;3.17;;;1.95;;
68196;SDS011;55019;49.382;11.358;2023-05-07T02:09:13;2.33;;;2.08;;
68196;SDS011;55019;49.382;11.358;2023-05-07T02:11:41;2.45;;;2.10;;
68196;SDS011;55019;49.382;11.358;2023-05-07T02:14:07;3.08;;;2.03;;
68196;SDS011;55019;49.382;11.358;2023-05-07T02:16:33;3.00;;;2.00;;
68196;SDS011;55019;49.382;11.358;2023-05-07T02:18:59;3.15;;;1.95;;
68196;SDS011;55019;49.382;11.358;2023-05-07T02:21:25;2.75;;;1.80;;
68196;SDS011;55019;49.382;11.358;2023-05-07T02:23:50;3.17;;;2.35;;
68196;SDS011;55019;49.382;11.358;2023-05-07T02:26:16;2.30;;;2.10;;
68196;SDS011;55019;49.382;11.358;2023-05-07T02:28:42;2.67;;;2.28;;
68196;SDS011;55019;49.382;11.358;2023-05-07T02:31:08;2.42;;;2.10;;
68196;SDS011;55019;49.382;11.358;2023-05-07T02:33:34;4.05;;;2.13;;
68196;SDS011;55019;49.382;11.358;2023-05-07T02:36:05;2.42;;;2.03;;
68196;SDS011;55019;49.382;11.358;2023-05-07T02:38:33;4.57;;;2.60;;
68196;SDS011;55019;49.382;11.358;2023-05-07T02:40:59;2.40;;;2.15;;
68196;SDS011;55019;49.382;11.358;2023-05-07T02:43:25;4.07;;;2.10;;
68196;SDS011;55019;49.382;11.358;2023-05-07T02:46:00;2.83;;;2.50;;
68196;SDS011;55019;49.382;11.358;2023-05-07T02:48:27;2.60;;;2.20;;
68196;SDS011;55019;49.382;11.358;2023-05-07T02:50:52;4.32;;;2.55;;
68196;SDS011;55019;49.382;11.358;2023-05-07T02:53:18;3.58;;;2.72;;
68196;SDS011;55019;49.382;11.358;2023-05-07T02:55:44;3.30;;;2.55;;
68196;SDS011;55019;49.382;11.358;2023-05-07T02:58:09;4.70;;;2.67;;
68196;SDS011;55019;49.382;11.358;2023-05-07T03:00:36;3.55;;;2.80;;
68196;SDS011;55019;49.382;11.358;2023-05-07T03:03:19;4.35;;;2.55;;
68196;SDS011;55019;49.382;11.358;2023-05-07T03:05:44;3.67;;;3.05;;
68196;SDS011;55019;49.382;11.358;2023-05-07T03:08:10;4.57;;;3.08;;
68196;SDS011;55019;49.382;11.358;2023-05-07T03:10:36;4.10;;;2.92;;
68196;SDS011;55019;49.382;11.358;2023-05-07T03:13:02;3.30;;;2.60;;
68196;SDS011;55019;49.382;11.358;2023-05-07T03:15:28;3.83;;;3.05;;
68196;SDS011;55019;49.382;11.358;2023-05-07T03:17:54;4.10;;;3.00;;
68196;SDS011;55019;49.382;11.358;2023-05-07T03:20:19;3.83;;;3.45;;
68196;SDS011;55019;49.382;11.358;2023-05-07T03:22:45;4.82;;;3.28;;
68196;SDS011;55019;49.382;11.358;2023-05-07T03:25:11;3.60;;;2.63;;
68196;SDS011;55019;49.382;11.358;2023-05-07T03:27:39;4.30;;;2.85;;
68196;SDS011;55019;49.382;11.358;2023-05-07T03:30:05;5.38;;;3.25;;
68196;SDS011;55019;49.382;11.358;2023-05-07T03:32:32;3.65;;;2.80;;
68196;SDS011;55019;49.382;11.358;2023-05-07T03:34:58;4.75;;;3.42;;
68196;SDS011;55019;49.382;11.358;2023-05-07T03:37:24;4.05;;;3.20;;
68196;SDS011;55019;49.382;11.358;2023-05-07T03:39:49;4.47;;;3.50;;
68196;SDS011;55019;49.382;11.358;2023-05-07T03:42:15;3.60;;;2.97;;
68196;SDS011;55019;49.382;11.358;2023-05-07T03:44:41;5.40;;;3.40;;
68196;SDS011;55019;49.382;11.358;2023-05-07T03:47:07;4.10;;;3.40;;
68196;SDS011;55019;49.382;11.358;2023-05-07T03:49:33;4.80;;;3.80;;
68196;SDS011;55019;49.382;11.358;2023-05-07T03:52:00;4.75;;;3.80;;
68196;SDS011;55019;49.382;11.358;2023-05-07T03:54:25;4.47;;;3.47;;
68196;SDS011;55019;49.382;11.358;2023-05-07T03:56:51;4.72;;;3.33;;
68196;SDS011;55019;49.382;11.358;2023-05-07T03:59:17;5.15;;;3.42;;
68196;SDS011;55019;49.382;11.358;2023-05-07T04:01:45;4.97;;;3.42;;
68196;SDS011;55019;49.382;11.358;2023-05-07T04:04:14;5.57;;;4.10;;
68196;SDS011;55019;49.382;11.358;2023-05-07T04:06:41;5.50;;;3.90;;
68196;SDS011;55019;49.382;11.358;2023-05-07T04:09:07;5.85;;;3.75;;
68196;SDS011;55019;49.382;11.358;2023-05-07T04:11:33;4.63;;;3.70;;
68196;SDS011;55019;49.382;11.358;2023-05-07T04:13:59;5.28;;;3.90;;
68196;SDS011;55019;49.382;11.358;2023-05-07T04:16:24;5.78;;;3.70;;
68196;SDS011;55019;49.382;11.358;2023-05-07T04:18:50;4.50;;;3.50;;
68196;SDS011;55019;49.382;11.358;2023-05-07T04:21:17;5.10;;;3.35;;
68196;SDS011;55019;49.382;11.358;2023-05-07T04:26:11;5.35;;;3.35;;
68196;SDS011;55019;49.382;11.358;2023-05-07T04:28:42;5.28;;;3.38;;
68196;SDS011;55019;49.382;11.358;2023-05-07T04:31:08;6.57;;;4.03;;
68196;SDS011;55019;49.382;11.358;2023-05-07T04:33:35;6.20;;;3.55;;
68196;SDS011;55019;49.382;11.358;2023-05-07T04:36:02;4.95;;;3.30;;
68196;SDS011;55019;49.382;11.358;2023-05-07T04:38:30;4.07;;;3.30;;
68196;SDS011;55019;49.382;11.358;2023-05-07T04:41:02;5.03;;;3.78;;
68196;SDS011;55019;49.382;11.358;2023-05-07T04:43:29;5.57;;;4.40;;
68196;SDS011;55019;49.382;11.358;2023-05-07T04:45:55;6.18;;;3.95;;
68196;SDS011;55019;49.382;11.358;2023-05-07T04:48:24;4.43;;;3.50;;
68196;SDS011;55019;49.382;11.358;2023-05-07T04:50:51;5.18;;;4.00;;
68196;SDS011;55019;49.382;11.358;2023-05-07T04:53:18;4.10;;;3.70;;
68196;SDS011;55019;49.382;11.358;2023-05-07T04:55:44;7.20;;;3.97;;
68196;SDS011;55019;49.382;11.358;2023-05-07T04:58:11;5.30;;;3.65;;
68196;SDS011;55019;49.382;11.358;2023-05-07T05:00:38;6.32;;;3.78;;
68196;SDS011;55019;49.382;11.358;2023-05-07T05:03:08;5.25;;;3.65;;
68196;SDS011;55019;49.382;11.358;2023-05-07T05:05:36;4.68;;;3.53;;
68196;SDS011;55019;49.382;11.358;2023-05-07T05:08:02;5.80;;;3.85;;
68196;SDS011;55019;49.382;11.358;2023-05-07T05:10:28;6.55;;;3.67;;
68196;SDS011;55019;49.382;11.358;2023-05-07T05:12:54;5.95;;;3.85;;
68196;SDS011;55019;49.382;11.358;2023-05-07T05:17:48;5.40;;;4.10;;
68196;SDS011;55019;49.382;11.358;2023-05-07T05:20:14;4.70;;;3.58;;
68196;SDS011;55019;49.382;11.358;2023-05-07T05:22:43;4.13;;;3.05;;
68196;SDS011;55019;49.382;11.358;2023-05-07T05:25:11;7.13;;;4.15;;
68196;SDS011;55019;49.382;11.358;2023-05-07T05:27:36;4.30;;;3.53;;
68196;SDS011;55019;49.382;11.358;2023-05-07T05:30:04;6.03;;;4.00;;
68196;SDS011;55019;49.382;11.358;2023-05-07T05:32:31;6.55;;;4.05;;
68196;SDS011;55019;49.382;11.358;2023-05-07T05:34:57;6.45;;;4.32;;
68196;SDS011;55019;49.382;11.358;2023-05-07T05:37:23;5.68;;;4.30;;
68196;SDS011;55019;49.382;11.358;2023-05-07T05:39:50;6.28;;;4.25;;
68196;SDS011;55019;49.382;11.358;2023-05-07T05:42:16;5.72;;;4.43;;
68196;SDS011;55019;49.382;11.358;2023-05-07T05:44:42;5.95;;;4.63;;
68196;SDS011;55019;49.382;11.358;2023-05-07T05:47:07;6.00;;;4.30;;
68196;SDS011;55019;49.382;11.358;2023-05-07T05:49:34;5.97;;;4.32;;
68196;SDS011;55019;49.382;11.358;2023-05-07T05:52:02;6.07;;;4.22;;
68196;SDS011;55019;49.382;11.358;2023-05-07T05:54:28;5.78;;;4.22;;
68196;SDS011;55019;49.382;11.358;2023-05-07T05:56:54;5.35;;;4.07;;
68196;SDS011;55019;49.382;11.358;2023-05-07T05:59:20;6.00;;;4.25;;
68196;SDS011;55019;49.382;11.358;2023-05-07T06:01:46;5.93;;;4.15;;
68196;SDS011;55019;49.382;11.358;2023-05-07T06:04:12;6.75;;;4.40;;
68196;SDS011;55019;49.382;11.358;2023-05-07T06:06:38;5.63;;;4.22;;
68196;SDS011;55019;49.382;11.358;2023-05-07T06:09:04;5.85;;;4.28;;
68196;SDS011;55019;49.382;11.358;2023-05-07T06:11:36;6.55;;;4.15;;
68196;SDS011;55019;49.382;11.358;2023-05-07T06:14:02;5.40;;;3.88;;
68196;SDS011;55019;49.382;11.358;2023-05-07T06:16:28;5.38;;;3.83;;
68196;SDS011;55019;49.382;11.358;2023-05-07T06:18:54;5.35;;;3.95;;
68196;SDS011;55019;49.382;11.358;2023-05-07T06:21:20;4.72;;;4.13;;
68196;SDS011;55019;49.382;11.358;2023-05-07T06:23:46;5.95;;;3.78;;
68196;SDS011;55019;49.382;11.358;2023-05-07T06:26:13;4.68;;;3.58;;
68196;SDS011;55019;49.382;11.358;2023-05-07T06:28:41;6.03;;;4.18;;
68196;SDS011;55019;49.382;11.358;2023-05-07T06:31:13;5.63;;;3.80;;
68196;SDS011;55019;49.382;11.358;2023-05-07T06:33:44;5.32;;;4.18;;
68196;SDS011;55019;49.382;11.358;2023-05-07T06:36:10;5.38;;;4.18;;
68196;SDS011;55019;49.382;11.358;2023-05-07T06:38:38;5.57;;;3.72;;
68196;SDS011;55019;49.382;11.358;2023-05-07T06:41:05;5.13;;;4.07;;
68196;SDS011;55019;49.382;11.358;2023-05-07T06:43:37;6.18;;;4.05;;
68196;SDS011;55019;49.382;11.358;2023-05-07T06:46:21;8.20;;;4.78;;
68196;SDS011;55019;49.382;11.358;2023-05-07T06:48:46;6.28;;;4.00;;
68196;SDS011;55019;49.382;11.358;2023-05-07T06:51:14;4.85;;;3.75;;
68196;SDS011;55019;49.382;11.358;2023-05-07T06:53:39;6.03;;;4.13;;
68196;SDS011;55019;49.382;11.358;2023-05-07T06:56:08;4.60;;;4.10;;
68196;SDS011;55019;49.382;11.358;2023-05-07T06:58:35;5.78;;;3.78;;
68196;SDS011;55019;49.382;11.358;2023-05-07T07:01:03;6.03;;;3.88;;
68196;SDS011;55019;49.382;11.358;2023-05-07T07:03:29;5.97;;;4.10;;
68196;SDS011;55019;49.382;11.358;2023-05-07T07:05:55;6.18;;;4.03;;
68196;SDS011;55019;49.382;11.358;2023-05-07T07:08:21;7.28;;;4.63;;
68196;SDS011;55019;49.382;11.358;2023-05-07T07:10:48;5.35;;;3.75;;
68196;SDS011;55019;49.382;11.358;2023-05-07T07:13:14;5.95;;;3.55;;
68196;SDS011;55019;49.382;11.358;2023-05-07T07:15:40;4.60;;;3.88;;
68196;SDS011;55019;49.382;11.358;2023-05-07T07:18:06;4.50;;;3.70;;
68196;SDS011;55019;49.382;11.358;2023-05-07T07:20:32;4.78;;;4.00;;
68196;SDS011;55019;49.382;11.358;2023-05-07T07:22:58;5.47;;;4.13;;
68196;SDS011;55019;49.382;11.358;2023-05-07T07:25:23;5.88;;;3.90;;
68196;SDS011;55019;49.382;11.358;2023-05-07T07:27:50;6.93;;;4.30;;
68196;SDS011;55019;49.382;11.358;2023-05-07T07:30:15;7.00;;;4.03;;
68196;SDS011;55019;49.382;11.358;2023-05-07T07:32:45;4.93;;;3.70;;
68196;SDS011;55019;49.382;11.358;2023-05-07T07:35:10;3.83;;;3.22;;
68196;SDS011;55019;49.382;11.358;2023-05-07T07:37:37;4.82;;;4.00;;
68196;SDS011;55019;49.382;11.358;2023-05-07T07:40:03;4.47;;;3.38;;
68196;SDS011;55019;49.382;11.358;2023-05-07T07:42:31;5.63;;;4.10;;
68196;SDS011;55019;49.382;11.358;2023-05-07T07:44:57;5.57;;;4.05;;
68196;SDS011;55019;49.382;11.358;2023-05-07T07:47:24;5.35;;;3.95;;
68196;SDS011;55019;49.382;11.358;2023-05-07T07:49:51;4.35;;;3.78;;
68196;SDS011;55019;49.382;11.358;2023-05-07T07:52:18;4.40;;;3.63;;
68196;SDS011;55019;49.382;11.358;2023-05-07T07:54:44;5.88;;;3.95;;
68196;SDS011;55019;49.382;11.358;2023-05-07T07:57:10;3.88;;;3.47;;
68196;SDS011;55019;49.382;11.358;2023-05-07T07:59:37;5.05;;;3.92;;
68196;SDS011;55019;49.382;11.358;2023-05-07T08:02:04;4.97;;;3.72;;
68196;SDS011;55019;49.382;11.358;2023-05-07T08:04:29;4.03;;;3.40;;
68196;SDS011;55019;49.382;11.358;2023-05-07T08:07:01;4.82;;;3.58;;
68196;SDS011;55019;49.382;11.358;2023-05-07T08:09:28;3.53;;;3.10;;
68196;SDS011;55019;49.382;11.358;2023-05-07T08:11:56;4.38;;;3.45;;
68196;SDS011;55019;49.382;11.358;2023-05-07T08:14:22;3.88;;;3.08;;
68196;SDS011;55019;49.382;11.358;2023-05-07T08:16:48;4.05;;;3.38;;
68196;SDS011;55019;49.382;11.358;2023-05-07T08:19:14;4.18;;;3.47;;
68196;SDS011;55019;49.382;11.358;2023-05-07T08:21:40;3.85;;;3.33;;
68196;SDS011;55019;49.382;11.358;2023-05-07T08:24:07;3.65;;;3.10;;
68196;SDS011;55019;49.382;11.358;2023-05-07T08:26:34;4.20;;;3.15;;
68196;SDS011;55019;49.382;11.358;2023-05-07T08:29:02;3.75;;;3.13;;
68196;SDS011;55019;49.382;11.358;2023-05-07T08:31:27;4.45;;;3.28;;
68196;SDS011;55019;49.382;11.358;2023-05-07T08:33:53;4.35;;;3.55;;
68196;SDS011;55019;49.382;11.358;2023-05-07T08:36:19;5.15;;;3.50;;
68196;SDS011;55019;49.382;11.358;2023-05-07T08:38:45;5.35;;;3.80;;
68196;SDS011;55019;49.382;11.358;2023-05-07T08:41:11;4.38;;;2.95;;
68196;SDS011;55019;49.382;11.358;2023-05-07T08:43:39;3.15;;;2.78;;
68196;SDS011;55019;49.382;11.358;2023-05-07T08:46:06;4.22;;;3.05;;
68196;SDS011;55019;49.382;11.358;2023-05-07T08:48:36;4.38;;;3.45;;
68196;SDS011;55019;49.382;11.358;2023-05-07T08:51:13;3.53;;;3.15;;
68196;SDS011;55019;49.382;11.358;2023-05-07T08:53:41;3.65;;;3.35;;
68196;SDS011;55019;49.382;11.358;2023-05-07T08:56:11;5.00;;;3.83;;
68196;SDS011;55019;49.382;11.358;2023-05-07T08:58:37;3.42;;;3.13;;
68196;SDS011;55019;49.382;11.358;2023-05-07T09:01:07;4.75;;;3.35;;
68196;SDS011;55019;49.382;11.358;2023-05-07T09:03:37;6.53;;;4.50;;
68196;SDS011;55019;49.382;11.358;2023-05-07T09:06:03;7.00;;;4.90;;
68196;SDS011;55019;49.382;11.358;2023-05-07T09:11:00;5.97;;;4.80;;
68196;SDS011;55019;49.382;11.358;2023-05-07T09:13:27;7.03;;;4.35;;
68196;SDS011;55019;49.382;11.358;2023-05-07T09:15:54;4.10;;;3.70;;
68196;SDS011;55019;49.382;11.358;2023-05-07T09:18:21;4.82;;;3.58;;
68196;SDS011;55019;49.382;11.358;2023-05-07T09:20:48;4.85;;;3.95;;
68196;SDS011;55019;49.382;11.358;2023-05-07T09:23:17;3.92;;;3.53;;
68196;SDS011;55019;49.382;11.358;2023-05-07T09:25:43;4.30;;;3.47;;
68196;SDS011;55019;49.382;11.358;2023-05-07T09:28:20;4.22;;;3.80;;
68196;SDS011;55019;49.382;11.358;2023-05-07T09:30:45;5.57;;;3.95;;
68196;SDS011;55019;49.382;11.358;2023-05-07T09:33:13;4.10;;;3.70;;
68196;SDS011;55019;49.382;11.358;2023-05-07T09:35:43;5.05;;;4.43;;
68196;SDS011;55019;49.382;11.358;2023-05-07T09:38:14;4.03;;;3.63;;
68196;SDS011;55019;49.382;11.358;2023-05-07T09:40:46;4.03;;;3.20;;
68196;SDS011;55019;49.382;11.358;2023-05-07T09:43:14;5.10;;;3.60;;
68196;SDS011;55019;49.382;11.358;2023-05-07T09:45:54;4.03;;;3.55;;
68196;SDS011;55019;49.382;11.358;2023-05-07T09:48:23;3.80;;;3.10;;
68196;SDS011;55019;49.382;11.358;2023-05-07T09:50:55;4.20;;;3.53;;
68196;SDS011;55019;49.382;11.358;2023-05-07T09:53:29;4.38;;;3.88;;
68196;SDS011;55019;49.382;11.358;2023-05-07T09:55:57;7.45;;;5.28;;
68196;SDS011;55019;49.382;11.358;2023-05-07T09:58:23;4.90;;;4.35;;
68196;SDS011;55019;49.382;11.358;2023-05-07T10:00:51;4.38;;;3.28;;
68196;SDS011;55019;49.382;11.358;2023-05-07T10:03:19;6.80;;;6.03;;
68196;SDS011;55019;49.382;11.358;2023-05-07T10:05:58;6.60;;;4.63;;
68196;SDS011;55019;49.382;11.358;2023-05-07T10:08:25;4.03;;;3.63;;
68196;SDS011;55019;49.382;11.358;2023-05-07T10:10:54;3.25;;;2.90;;
68196;SDS011;55019;49.382;11.358;2023-05-07T10:13:23;3.30;;;3.03;;
68196;SDS011;55019;49.382;11.358;2023-05-07T10:15:53;6.15;;;4.90;;
68196;SDS011;55019;49.382;11.358;2023-05-07T10:18:21;4.13;;;3.65;;
68196;SDS011;55019;49.382;11.358;2023-05-07T10:20:49;5.85;;;4.55;;
68196;SDS011;55019;49.382;11.358;2023-05-07T10:23:21;5.70;;;4.93;;
68196;SDS011;55019;49.382;11.358;2023-05-07T10:25:52;4.50;;;3.58;;
68196;SDS011;55019;49.382;11.358;2023-05-07T10:28:21;5.03;;;4.03;;
68196;SDS011;55019;49.382;11.358;2023-05-07T10:30:58;4.45;;;4.05;;
68196;SDS011;55019;49.382;11.358;2023-05-07T10:33:33;4.88;;;3.50;;
68196;SDS011;55019;49.382;11.358;2023-05-07T10:36:01;4.78;;;3.67;;
68196;SDS011;55019;49.382;11.358;2023-05-07T10:38:30;4.03;;;3.70;;
68196;SDS011;55019;49.382;11.358;2023-05-07T10:40:58;3.72;;;3.38;;
68196;SDS011;55019;49.382;11.358;2023-05-07T10:43:24;3.78;;;3.47;;
68196;SDS011;55019;49.382;11.358;2023-05-07T10:46:11;5.80;;;3.13;;
68196;SDS011;55019;49.382;11.358;2023-05-07T10:51:27;4.32;;;3.90;;
68196;SDS011;55019;49.382;11.358;2023-05-07T10:56:38;4.20;;;3.80;;
68196;SDS011;55019;49.382;11.358;2023-05-07T11:01:53;3.22;;;2.92;;
68196;SDS011;55019;49.382;11.358;2023-05-07T11:05:32;4.00;;;3.58;;
68196;SDS011;55019;49.382;11.358;2023-05-07T11:08:00;3.88;;;3.58;;
68196;SDS011;55019;49.382;11.358;2023-05-07T11:10:53;4.13;;;3.83;;
68196;SDS011;55019;49.382;11.358;2023-05-07T11:13:45;3.42;;;2.83;;
68196;SDS011;55019;49.382;11.358;2023-05-07T11:16:33;5.25;;;3.35;;
68196;SDS011;55019;49.382;11.358;2023-05-07T11:19:14;3.05;;;2.78;;
68196;SDS011;55019;49.382;11.358;2023-05-07T11:21:44;2.90;;;2.67;;
68196;SDS011;55019;49.382;11.358;2023-05-07T11:24:39;2.95;;;2.75;;
68196;SDS011;55019;49.382;11.358;2023-05-07T11:27:06;3.42;;;2.97;;
68196;SDS011;55019;49.382;11.358;2023-05-07T11:29:32;2.45;;;2.25;;
68196;SDS011;55019;49.382;11.358;2023-05-07T11:32:12;2.97;;;2.78;;
68196;SDS011;55019;49.382;11.358;2023-05-07T11:34:51;2.65;;;2.45;;
68196;SDS011;55019;49.382;11.358;2023-05-07T11:37:17;3.90;;;2.92;;
68196;SDS011;55019;49.382;11.358;2023-05-07T11:39:50;2.70;;;2.45;;
68196;SDS011;55019;49.382;11.358;2023-05-07T11:42:30;2.58;;;2.38;;
68196;SDS011;55019;49.382;11.358;2023-05-07T11:44:57;3.60;;;2.13;;
68196;SDS011;55019;49.382;11.358;2023-05-07T11:47:23;3.50;;;2.50;;
68196;SDS011;55019;49.382;11.358;2023-05-07T11:49:50;4.50;;;3.83;;
68196;SDS011;55019;49.382;11.358;2023-05-07T11:52:18;2.45;;;2.03;;
68196;SDS011;55019;49.382;11.358;2023-05-07T11:54:48;2.78;;;2.20;;
68196;SDS011;55019;49.382;11.358;2023-05-07T11:57:18;1.77;;;1.60;;
68196;SDS011;55019;49.382;11.358;2023-05-07T11:59:44;3.92;;;3.33;;
68196;SDS011;55019;49.382;11.358;2023-05-07T12:02:10;2.60;;;2.40;;
68196;SDS011;55019;49.382;11.358;2023-05-07T12:04:37;2.10;;;2.00;;
68196;SDS011;55019;49.382;11.358;2023-05-07T12:07:03;3.40;;;2.05;;
68196;SDS011;55019;49.382;11.358;2023-05-07T12:09:29;2.83;;;2.42;;
68196;SDS011;55019;49.382;11.358;2023-05-07T12:11:55;2.72;;;2.53;;
68196;SDS011;55019;49.382;11.358;2023-05-07T12:14:21;3.55;;;3.20;;
68196;SDS011;55019;49.382;11.358;2023-05-07T12:16:47;2.25;;;2.05;;
68196;SDS011;55019;49.382;11.358;2023-05-07T12:19:13;3.25;;;2.95;;
68196;SDS011;55019;49.382;11.358;2023-05-07T12:21:39;3.42;;;3.13;;
68196;SDS011;55019;49.382;11.358;2023-05-07T12:24:05;3.85;;;3.13;;
68196;SDS011;55019;49.382;11.358;2023-05-07T12:26:31;3.65;;;2.72;;
68196;SDS011;55019;49.382;11.358;2023-05-07T12:28:57;3.95;;;2.95;;
68196;SDS011;55019;49.382;11.358;2023-05-07T12:31:25;2.25;;;2.00;;
68196;SDS011;55019;49.382;11.358;2023-05-07T12:33:51;3.88;;;3.00;;
68196;SDS011;55019;49.382;11.358;2023-05-07T12:36:17;3.25;;;2.90;;
68196;SDS011;55019;49.382;11.358;2023-05-07T12:38:43;2.30;;;2.10;;
68196;SDS011;55019;49.382;11.358;2023-05-07T12:41:10;3.75;;;3.40;;
68196;SDS011;55019;49.382;11.358;2023-05-07T12:43:37;3.50;;;3.17;;
68196;SDS011;55019;49.382;11.358;2023-05-07T12:46:04;3.20;;;2.95;;
68196;SDS011;55019;49.382;11.358;2023-05-07T12:48:32;2.70;;;2.42;;
68196;SDS011;55019;49.382;11.358;2023-05-07T12:50:59;2.47;;;2.28;;
68196;SDS011;55019;49.382;11.358;2023-05-07T12:53:26;2.80;;;2.40;;
68196;SDS011;55019;49.382;11.358;2023-05-07T12:55:56;2.63;;;2.42;;
68196;SDS011;55019;49.382;11.358;2023-05-07T12:58:28;2.47;;;2.28;;
68196;SDS011;55019;49.382;11.358;2023-05-07T13:00:55;2.40;;;1.90;;
68196;SDS011;55019;49.382;11.358;2023-05-07T13:03:26;2.47;;;2.28;;
68196;SDS011;55019;49.382;11.358;2023-05-07T13:05:57;4.32;;;2.33;;
68196;SDS011;55019;49.382;11.358;2023-05-07T13:08:34;2.10;;;1.90;;
68196;SDS011;55019;49.382;11.358;2023-05-07T13:11:03;2.35;;;2.15;;
68196;SDS011;55019;49.382;11.358;2023-05-07T13:13:32;2.30;;;2.10;;
68196;SDS011;55019;49.382;11.358;2023-05-07T13:16:00;2.90;;;2.35;;
68196;SDS011;55019;49.382;11.358;2023-05-07T13:18:30;2.90;;;2.38;;
68196;SDS011;55019;49.382;11.358;2023-05-07T13:20:56;3.90;;;2.30;;
68196;SDS011;55019;49.382;11.358;2023-05-07T13:23:22;2.45;;;2.25;;
68196;SDS011;55019;49.382;11.358;2023-05-07T13:25:49;2.45;;;2.28;;
68196;SDS011;55019;49.382;11.358;2023-05-07T13:28:16;2.58;;;2.38;;
68196;SDS011;55019;49.382;11.358;2023-05-07T13:30:42;2.67;;;2.35;;
68196;SDS011;55019;49.382;11.358;2023-05-07T13:33:08;2.45;;;2.25;;
68196;SDS011;55019;49.382;11.358;2023-05-07T13:35:34;2.22;;;2.03;;
68196;SDS011;55019;49.382;11.358;2023-05-07T13:38:00;2.88;;;2.20;;
68196;SDS011;55019;49.382;11.358;2023-05-07T13:40:26;2.90;;;2.60;;
68196;SDS011;55019;49.382;11.358;2023-05-07T13:42:51;2.08;;;1.88;;
68196;SDS011;55019;49.382;11.358;2023-05-07T13:45:18;3.22;;;2.05;;
68196;SDS011;55019;49.382;11.358;2023-05-07T13:47:45;2.53;;;2.33;;
68196;SDS011;55019;49.382;11.358;2023-05-07T13:50:11;2.80;;;2.42;;
68196;SDS011;55019;49.382;11.358;2023-05-07T13:55:06;2.50;;;2.30;;
68196;SDS011;55019;49.382;11.358;2023-05-07T13:57:32;2.70;;;2.50;;
68196;SDS011;55019;49.382;11.358;2023-05-07T13:59:58;2.65;;;2.42;;
68196;SDS011;55019;49.382;11.358;2023-05-07T14:02:23;2.60;;;2.20;;
68196;SDS011;55019;49.382;11.358;2023-05-07T14:04:49;2.55;;;2.00;;
68196;SDS011;55019;49.382;11.358;2023-05-07T14:07:15;3.33;;;2.20;;
68196;SDS011;55019;49.382;11.358;2023-05-07T14:09:40;2.30;;;2.10;;
68196;SDS011;55019;49.382;11.358;2023-05-07T14:12:07;2.42;;;2.17;;
68196;SDS011;55019;49.382;11.358;2023-05-07T14:14:32;2.60;;;2.20;;
68196;SDS011;55019;49.382;11.358;2023-05-07T14:16:58;2.40;;;2.20;;
68196;SDS011;55019;49.382;11.358;2023-05-07T14:19:24;2.88;;;2.47;;
68196;SDS011;55019;49.382;11.358;2023-05-07T14:21:50;3.35;;;3.05;;
68196;SDS011;55019;49.382;11.358;2023-05-07T14:24:16;3.67;;;3.38;;
68196;SDS011;55019;49.382;11.358;2023-05-07T14:26:42;4.05;;;3.20;;
68196;SDS011;55019;49.382;11.358;2023-05-07T14:29:07;4.18;;;3.13;;
68196;SDS011;55019;49.382;11.358;2023-05-07T14:31:33;3.35;;;2.60;;
68196;SDS011;55019;49.382;11.358;2023-05-07T14:33:58;4.30;;;3.50;;
68196;SDS011;55019;49.382;11.358;2023-05-07T14:36:25;4.22;;;2.70;;
68196;SDS011;55019;49.382;11.358;2023-05-07T14:38:55;2.90;;;2.70;;
68196;SDS011;55019;49.382;11.358;2023-05-07T14:41:22;3.03;;;2.78;;
68196;SDS011;55019;49.382;11.358;2023-05-07T14:43:47;2.67;;;2.47;;
68196;SDS011;55019;49.382;11.358;2023-05-07T14:46:18;3.97;;;2.65;;
68196;SDS011;55019;49.382;11.358;2023-05-07T14:48:44;3.65;;;2.90;;
68196;SDS011;55019;49.382;11.358;2023-05-07T14:51:11;3.13;;;2.60;;
68196;SDS011;55019;49.382;11.358;2023-05-07T14:53:37;2.83;;;2.30;;
68196;SDS011;55019;49.382;11.358;2023-05-07T14:56:03;3.75;;;2.85;;
68196;SDS011;55019;49.382;11.358;2023-05-07T15:00:56;4.57;;;3.42;;